sensor_id;sensor_type;location;lat;lon;timestamp;temperature;humidity
26613;DHT22;14248;57.652;11.908;2023-05-07T13:29:23;23.90;36.40
26613;DHT22;14248;57.652;11.908;2023-05-07T13:46:33;21.10;44.50
26613;DHT22;14248;57.652;11.908;2023-05-07T13:48:58;26.40;38.90
26613;DHT22;14248;57.652;11.908;2023-05-07T13:51:24;26.60;37.20
26613;DHT22;14248;57.652;11.908;2023-05-07T13:53:51;27.00;36.00
26613;DHT22;14248;57.652;11.908;2023-05-07T13:56:18;27.10;36.20
26613;DHT22;14248;57.652;11.908;2023-05-07T13:58:43;27.10;35.60
26613;DHT22;14248;57.652;11.908;2023-05-07T14:01:09;27.20;35.60
26613;DHT22;14248;57.652;11.908;2023-05-07T14:03:35;27.40;35.60
26613;DHT22;14248;57.652;11.908;2023-05-07T14:49:59;27.70;34.40
26613;DHT22;14248;57.652;11.908;2023-05-07T14:52:27;31.60;33.30
26613;DHT22;14248;57.652;11.908;2023-05-07T14:54:54;31.80;33.10
26613;DHT22;14248;57.652;11.908;2023-05-07T14:57:20;32.00;32.80
26613;DHT22;14248;57.652;11.908;2023-05-07T14:59:45;32.30;32.40
26613;DHT22;14248;57.652;11.908;2023-05-07T15:02:12;32.30;31.70
26613;DHT22;14248;57.652;11.908;2023-05-07T15:04:38;32.10;31.60
26613;DHT22;14248;57.652;11.908;2023-05-07T15:07:14;32.10;32.30
26613;DHT22;14248;57.652;11.908;2023-05-07T15:09:43;32.30;32.30
26613;DHT22;14248;57.652;11.908;2023-05-07T15:12:09;32.60;31.90
26613;DHT22;14248;57.652;11.908;2023-05-07T15:24:22;32.70;32.20
26613;DHT22;14248;57.652;11.908;2023-05-07T15:29:14;33.60;30.70
26613;DHT22;14248;57.652;11.908;2023-05-07T15:56:08;32.60;31.20
26613;DHT22;14248;57.652;11.908;2023-05-07T15:58:34;33.10;31.50
26613;DHT22;14248;57.652;11.908;2023-05-07T16:01:00;33.30;31.40
26613;DHT22;14248;57.652;11.908;2023-05-07T16:03:27;33.50;31.70
26613;DHT22;14248;57.652;11.908;2023-05-07T16:05:54;33.50;30.70
26613;DHT22;14248;57.652;11.908;2023-05-07T16:08:22;33.40;30.60
26613;DHT22;14248;57.652;11.908;2023-05-07T16:18:11;33.10;30.50
26613;DHT22;14248;57.652;11.908;2023-05-07T16:20:41;33.20;31.60
26613;DHT22;14248;57.652;11.908;2023-05-07T16:23:10;33.50;31.70
26613;DHT22;14248;57.652;11.908;2023-05-07T16:25:38;33.80;31.10
26613;DHT22;14248;57.652;11.908;2023-05-07T16:28:04;34.00;31.50
26613;DHT22;14248;57.652;11.908;2023-05-07T16:30:30;34.00;31.10
26613;DHT22;14248;57.652;11.908;2023-05-07T16:42:41;34.00;31.30
26613;DHT22;14248;57.652;11.908;2023-05-07T16:45:07;33.90;31.30
26613;DHT22;14248;57.652;11.908;2023-05-07T16:47:33;33.90;31.10
26613;DHT22;14248;57.652;11.908;2023-05-07T16:49:59;33.80;30.90
26613;DHT22;14248;57.652;11.908;2023-05-07T16:52:28;33.70;31.20
26613;DHT22;14248;57.652;11.908;2023-05-07T16:54:54;33.60;31.30
26613;DHT22;14248;57.652;11.908;2023-05-07T16:57:23;33.60;31.20
26613;DHT22;14248;57.652;11.908;2023-05-07T16:59:50;33.60;31.50
26613;DHT22;14248;57.652;11.908;2023-05-07T17:02:17;33.60;31.40
26613;DHT22;14248;57.652;11.908;2023-05-07T17:04:42;33.60;31.40
26613;DHT22;14248;57.652;11.908;2023-05-07T17:07:08;33.60;31.40
26613;DHT22;14248;57.652;11.908;2023-05-07T17:09:34;33.60;31.50
26613;DHT22;14248;57.652;11.908;2023-05-07T17:12:00;33.40;31.70
26613;DHT22;14248;57.652;11.908;2023-05-07T17:14:27;33.50;31.60
26613;DHT22;14248;57.652;11.908;2023-05-07T17:16:52;33.40;31.30
26613;DHT22;14248;57.652;11.908;2023-05-07T18:27:46;33.40;31.20
